sensor_id;sensor_type;location;lat;lon;timestamp;pressure;altitude;pressure_sealevel;temperature;humidity
16100;BME280;8154;50.830;12.082;2023-05-11T01:40:56;99124.22;;;24.18;39.31
16100;BME280;8154;50.830;12.082;2023-05-11T01:43:29;99127.72;;;24.18;39.25
16100;BME280;8154;50.830;12.082;2023-05-11T01:46:03;99123.22;;;24.19;39.70
16100;BME280;8154;50.830;12.082;2023-05-11T01:48:51;99125.31;;;24.04;39.71
16100;BME280;8154;50.830;12.082;2023-05-11T01:51:41;99125.09;;;24.05;39.63
16100;BME280;8154;50.830;12.082;2023-05-11T01:54:29;99125.06;;;24.12;39.30
16100;BME280;8154;50.830;12.082;2023-05-11T01:56:58;99125.25;;;24.17;39.27
16100;BME280;8154;50.830;12.082;2023-05-11T01:59:32;99129.34;;;24.19;39.37
16100;BME280;8154;50.830;12.082;2023-05-11T02:02:07;99129.16;;;24.21;39.15
16100;BME280;8154;50.830;12.082;2023-05-11T02:04:36;99122.19;;;24.20;39.06
16100;BME280;8154;50.830;12.082;2023-05-11T02:07:05;99125.06;;;24.18;39.15
16100;BME280;8154;50.830;12.082;2023-05-11T02:09:33;99124.22;;;24.18;39.45
16100;BME280;8154;50.830;12.082;2023-05-11T02:12:05;99122.59;;;24.10;39.36
16100;BME280;8154;50.830;12.082;2023-05-11T02:14:33;99119.34;;;24.02;39.53
16100;BME280;8154;50.830;12.082;2023-05-11T02:17:02;99121.38;;;24.06;39.63
16100;BME280;8154;50.830;12.082;2023-05-11T02:19:31;99116.63;;;24.15;39.48
16100;BME280;8154;50.830;12.082;2023-05-11T02:21:59;99114.16;;;24.20;39.13
16100;BME280;8154;50.830;12.082;2023-05-11T02:24:27;99118.69;;;24.19;39.18
16100;BME280;8154;50.830;12.082;2023-05-11T02:26:56;99121.38;;;24.13;39.26
16100;BME280;8154;50.830;12.082;2023-05-11T02:29:24;99121.78;;;24.03;39.41
16100;BME280;8154;50.830;12.082;2023-05-11T02:32:05;99118.91;;;24.05;39.40
16100;BME280;8154;50.830;12.082;2023-05-11T02:34:42;99110.91;;;24.11;39.54
16100;BME280;8154;50.830;12.082;2023-05-11T02:37:11;99115.63;;;24.16;39.07
16100;BME280;8154;50.830;12.082;2023-05-11T02:39:40;99111.28;;;24.15;39.08
16100;BME280;8154;50.830;12.082;2023-05-11T02:42:17;99109.88;;;24.06;39.49
16100;BME280;8154;50.830;12.082;2023-05-11T02:44:52;99117.69;;;24.01;39.67
16100;BME280;8154;50.830;12.082;2023-05-11T02:47:22;99111.94;;;24.04;39.53
16100;BME280;8154;50.830;12.082;2023-05-11T02:49:54;99115.41;;;24.11;39.06
16100;BME280;8154;50.830;12.082;2023-05-11T02:52:24;99108.03;;;24.06;39.29
16100;BME280;8154;50.830;12.082;2023-05-11T02:54:54;99112.53;;;23.99;39.31
16100;BME280;8154;50.830;12.082;2023-05-11T02:57:22;99102.69;;;24.06;39.46
16100;BME280;8154;50.830;12.082;2023-05-11T02:59:49;99099.19;;;24.12;38.90
16100;BME280;8154;50.830;12.082;2023-05-11T03:02:16;99102.47;;;24.14;39.08
16100;BME280;8154;50.830;12.082;2023-05-11T03:04:43;99103.28;;;24.15;38.95
16100;BME280;8154;50.830;12.082;2023-05-11T03:07:09;99101.84;;;24.19;38.89
16100;BME280;8154;50.830;12.082;2023-05-11T03:09:35;99102.88;;;24.18;38.89
16100;BME280;8154;50.830;12.082;2023-05-11T03:12:03;99108.44;;;24.10;39.24
16100;BME280;8154;50.830;12.082;2023-05-11T03:14:32;99110.50;;;24.01;39.12
16100;BME280;8154;50.830;12.082;2023-05-11T03:17:00;99107.63;;;24.03;39.38
16100;BME280;8154;50.830;12.082;2023-05-11T03:19:28;99102.50;;;24.08;39.13
16100;BME280;8154;50.830;12.082;2023-05-11T03:21:57;99102.06;;;24.11;39.01
16100;BME280;8154;50.830;12.082;2023-05-11T03:24:25;99094.69;;;24.13;38.82
16100;BME280;8154;50.830;12.082;2023-05-11T03:26:53;99101.88;;;24.12;39.05
16100;BME280;8154;50.830;12.082;2023-05-11T03:29:21;99104.31;;;24.14;38.72
16100;BME280;8154;50.830;12.082;2023-05-11T03:31:49;99093.44;;;24.09;39.06
16100;BME280;8154;50.830;12.082;2023-05-11T03:34:17;99102.69;;;24.00;39.02
16100;BME280;8154;50.830;12.082;2023-05-11T03:36:49;99097.16;;;24.01;38.95
16100;BME280;8154;50.830;12.082;2023-05-11T03:39:16;99101.44;;;24.09;38.72
16100;BME280;8154;50.830;12.082;2023-05-11T03:41:44;99093.44;;;24.09;39.04
16100;BME280;8154;50.830;12.082;2023-05-11T03:44:16;99099.19;;;24.12;38.95
16100;BME280;8154;50.830;12.082;2023-05-11T03:46:46;99101.66;;;24.14;38.93
16100;BME280;8154;50.830;12.082;2023-05-11T03:49:16;99097.13;;;24.14;38.69
16100;BME280;8154;50.830;12.082;2023-05-11T03:51:44;99105.38;;;24.13;38.79
16100;BME280;8154;50.830;12.082;2023-05-11T03:54:12;99092.59;;;24.15;38.64
16100;BME280;8154;50.830;12.082;2023-05-11T03:56:40;99099.81;;;24.08;38.71
16100;BME280;8154;50.830;12.082;2023-05-11T03:59:14;99090.81;;;23.96;39.00
16100;BME280;8154;50.830;12.082;2023-05-11T04:01:42;99096.72;;;23.98;39.13
16100;BME280;8154;50.830;12.082;2023-05-11T04:04:09;99093.44;;;24.02;39.04
16100;BME280;8154;50.830;12.082;2023-05-11T04:06:38;99086.69;;;24.06;38.96
16100;BME280;8154;50.830;12.082;2023-05-11T04:09:06;99088.94;;;24.09;38.62
16100;BME280;8154;50.830;12.082;2023-05-11T04:11:35;99085.63;;;24.07;38.54
16100;BME280;8154;50.830;12.082;2023-05-11T04:14:03;99093.22;;;24.10;38.60
16100;BME280;8154;50.830;12.082;2023-05-11T04:16:31;99087.28;;;24.08;38.65
16100;BME280;8154;50.830;12.082;2023-05-11T04:18:58;99091.81;;;24.08;38.80
16100;BME280;8154;50.830;12.082;2023-05-11T04:21:26;99091.81;;;24.08;38.66
16100;BME280;8154;50.830;12.082;2023-05-11T04:23:52;99086.06;;;23.98;38.68
16100;BME280;8154;50.830;12.082;2023-05-11T04:26:18;99091.41;;;23.91;39.23
16100;BME280;8154;50.830;12.082;2023-05-11T04:28:44;99094.69;;;24.00;38.78
16100;BME280;8154;50.830;12.082;2023-05-11T04:31:10;99085.84;;;24.06;38.72
16100;BME280;8154;50.830;12.082;2023-05-11T04:33:37;99092.22;;;24.05;38.66
16100;BME280;8154;50.830;12.082;2023-05-11T04:36:05;99092.03;;;24.06;38.56
16100;BME280;8154;50.830;12.082;2023-05-11T04:38:33;99094.47;;;24.08;38.59
16100;BME280;8154;50.830;12.082;2023-05-11T04:41:07;99087.28;;;24.08;38.41
16100;BME280;8154;50.830;12.082;2023-05-11T04:43:35;99096.31;;;24.07;38.63
16100;BME280;8154;50.830;12.082;2023-05-11T04:46:03;99097.16;;;24.08;38.40
16100;BME280;8154;50.830;12.082;2023-05-11T04:48:31;99097.97;;;24.08;38.37
16100;BME280;8154;50.830;12.082;2023-05-11T04:51:02;99094.91;;;24.05;38.70
16100;BME280;8154;50.830;12.082;2023-05-11T04:53:32;99100.84;;;24.07;38.81
16100;BME280;8154;50.830;12.082;2023-05-11T04:55:58;99099.19;;;24.06;38.68
16100;BME280;8154;50.830;12.082;2023-05-11T04:58:26;99109.50;;;23.96;38.82
16100;BME280;8154;50.830;12.082;2023-05-11T05:00:54;99096.94;;;23.90;39.08
16100;BME280;8154;50.830;12.082;2023-05-11T05:03:21;99098.41;;;23.99;38.83
16100;BME280;8154;50.830;12.082;2023-05-11T05:05:49;99099.59;;;24.03;38.76
16100;BME280;8154;50.830;12.082;2023-05-11T05:08:17;99093.84;;;24.06;38.45
16100;BME280;8154;50.830;12.082;2023-05-11T05:10:46;99094.47;;;24.08;38.59
16100;BME280;8154;50.830;12.082;2023-05-11T05:13:16;99100.84;;;24.07;38.55
16100;BME280;8154;50.830;12.082;2023-05-11T05:15:43;99098.97;;;24.07;38.41
16100;BME280;8154;50.830;12.082;2023-05-11T05:18:09;99103.91;;;24.10;38.35
16100;BME280;8154;50.830;12.082;2023-05-11T05:20:35;99098.97;;;24.07;38.66
16100;BME280;8154;50.830;12.082;2023-05-11T05:23:03;99093.06;;;23.99;38.90
16100;BME280;8154;50.830;12.082;2023-05-11T05:25:31;99105.13;;;23.95;38.70
16100;BME280;8154;50.830;12.082;2023-05-11T05:27:59;99103.53;;;24.00;38.73
16100;BME280;8154;50.830;12.082;2023-05-11T05:30:28;99102.28;;;24.03;38.56
16100;BME280;8154;50.830;12.082;2023-05-11T05:32:56;99101.28;;;24.04;38.65
16100;BME280;8154;50.830;12.082;2023-05-11T05:35:23;99106.63;;;24.04;38.54
16100;BME280;8154;50.830;12.082;2023-05-11T05:37:51;99112.75;;;23.98;38.58
16100;BME280;8154;50.830;12.082;2023-05-11T05:40:18;99109.03;;;23.92;38.96
16100;BME280;8154;50.830;12.082;2023-05-11T06:38:07;99124.00;;;23.93;38.42
16100;BME280;8154;50.830;12.082;2023-05-11T06:40:34;99123.22;;;23.93;38.46
16100;BME280;8154;50.830;12.082;2023-05-11T06:43:02;99119.72;;;23.86;38.97
16100;BME280;8154;50.830;12.082;2023-05-11T06:45:29;99118.50;;;23.82;38.81
16100;BME280;8154;50.830;12.082;2023-05-11T06:47:56;99121.59;;;23.85;38.70
16100;BME280;8154;50.830;12.082;2023-05-11T06:50:22;99116.84;;;23.87;38.69
16100;BME280;8154;50.830;12.082;2023-05-11T06:52:49;99116.63;;;23.89;38.59
16100;BME280;8154;50.830;12.082;2023-05-11T06:55:15;99118.28;;;23.90;38.71
16100;BME280;8154;50.830;12.082;2023-05-11T06:57:41;99111.72;;;23.86;38.75
16100;BME280;8154;50.830;12.082;2023-05-11T07:00:09;99118.50;;;23.82;38.58
16100;BME280;8154;50.830;12.082;2023-05-11T07:02:37;99119.72;;;23.86;38.89
16100;BME280;8154;50.830;12.082;2023-05-11T07:05:04;99114.78;;;23.89;38.54
16100;BME280;8154;50.830;12.082;2023-05-11T07:07:31;99115.63;;;23.90;38.62
16100;BME280;8154;50.830;12.082;2023-05-11T07:09:58;99115.63;;;23.90;38.43
16100;BME280;8154;50.830;12.082;2023-05-11T07:12:25;99120.53;;;23.86;38.74
16100;BME280;8154;50.830;12.082;2023-05-11T07:14:52;99110.50;;;23.82;38.64
16100;BME280;8154;50.830;12.082;2023-05-11T07:17:19;99110.69;;;23.80;38.72
16100;BME280;8154;50.830;12.082;2023-05-11T07:19:46;99122.16;;;23.81;38.85
16100;BME280;8154;50.830;12.082;2023-05-11T07:22:13;99116.03;;;23.80;38.84
16100;BME280;8154;50.830;12.082;2023-05-11T07:24:40;99112.53;;;23.80;38.94
16100;BME280;8154;50.830;12.082;2023-05-11T07:27:07;99116.84;;;23.81;38.93
16100;BME280;8154;50.830;12.082;2023-05-11T07:29:34;99116.25;;;23.79;38.73
16100;BME280;8154;50.830;12.082;2023-05-11T07:32:01;99116.25;;;23.79;38.70
16100;BME280;8154;50.830;12.082;2023-05-11T07:34:28;99120.53;;;23.80;38.78
16100;BME280;8154;50.830;12.082;2023-05-11T07:36:55;99124.25;;;23.79;38.79
16100;BME280;8154;50.830;12.082;2023-05-11T07:39:22;99133.06;;;23.79;38.98
16100;BME280;8154;50.830;12.082;2023-05-11T07:41:49;99135.72;;;23.79;38.92
16100;BME280;8154;50.830;12.082;2023-05-11T08:42:44;99141.69;;;23.81;38.88
16100;BME280;8154;50.830;12.082;2023-05-11T08:45:11;99140.44;;;23.84;38.84
16100;BME280;8154;50.830;12.082;2023-05-11T08:47:39;99140.44;;;23.84;38.94
16100;BME280;8154;50.830;12.082;2023-05-11T08:50:07;99143.53;;;23.81;38.89
16100;BME280;8154;50.830;12.082;2023-05-11T08:52:34;99141.06;;;23.79;38.86
16100;BME280;8154;50.830;12.082;2023-05-11T08:55:02;99146.41;;;23.79;38.90
16100;BME280;8154;50.830;12.082;2023-05-11T08:57:31;99144.56;;;23.80;38.96
16100;BME280;8154;50.830;12.082;2023-05-11T09:00:03;99144.75;;;23.78;38.88
16100;BME280;8154;50.830;12.082;2023-05-11T09:02:30;99145.59;;;23.79;38.86
16100;BME280;8154;50.830;12.082;2023-05-11T09:04:58;99146.41;;;23.79;39.02
16100;BME280;8154;50.830;12.082;2023-05-11T09:07:25;99155.22;;;23.80;39.04
16100;BME280;8154;50.830;12.082;2023-05-11T09:09:51;99152.16;;;23.83;38.98
16100;BME280;8154;50.830;12.082;2023-05-11T09:12:18;99150.09;;;23.85;38.87
16100;BME280;8154;50.830;12.082;2023-05-11T09:14:45;99145.19;;;23.82;39.17
16100;BME280;8154;50.830;12.082;2023-05-11T09:17:13;99139.00;;;23.81;39.00
16100;BME280;8154;50.830;12.082;2023-05-11T09:20:03;99136.97;;;23.83;39.01
16100;BME280;8154;50.830;12.082;2023-05-11T09:22:41;99137.97;;;23.82;38.88
16100;BME280;8154;50.830;12.082;2023-05-11T09:25:11;99138.19;;;23.87;38.72
16100;BME280;8154;50.830;12.082;2023-05-11T09:27:45;99141.91;;;23.86;38.88
16100;BME280;8154;50.830;12.082;2023-05-11T09:30:29;99138.81;;;23.83;38.97
16100;BME280;8154;50.830;12.082;2023-05-11T09:33:00;99146.81;;;23.83;39.00
16100;BME280;8154;50.830;12.082;2023-05-11T09:35:31;99145.78;;;23.84;39.09
16100;BME280;8154;50.830;12.082;2023-05-11T09:38:03;99142.72;;;23.87;38.77
16100;BME280;8154;50.830;12.082;2023-05-11T09:40:53;99140.88;;;23.94;38.70
16100;BME280;8154;50.830;12.082;2023-05-11T12:44:15;99079.88;;;24.10;38.68
16100;BME280;8154;50.830;12.082;2023-05-11T12:46:45;99087.50;;;24.07;38.68
16100;BME280;8154;50.830;12.082;2023-05-11T12:49:16;99084.00;;;24.06;38.80
16100;BME280;8154;50.830;12.082;2023-05-11T12:54:23;99083.38;;;24.11;38.79
16100;BME280;8154;50.830;12.082;2023-05-11T12:56:50;99089.56;;;24.11;38.79
16100;BME280;8154;50.830;12.082;2023-05-11T12:59:29;99087.28;;;24.08;38.66
16100;BME280;8154;50.830;12.082;2023-05-11T13:02:16;99086.06;;;24.11;38.69
16100;BME280;8154;50.830;12.082;2023-05-11T13:04:43;99081.13;;;24.14;38.60
16100;BME280;8154;50.830;12.082;2023-05-11T13:07:12;99082.13;;;24.20;38.73
16100;BME280;8154;50.830;12.082;2023-05-11T13:09:39;99078.84;;;24.18;38.56
16100;BME280;8154;50.830;12.082;2023-05-11T13:12:26;99081.13;;;24.14;38.62
16100;BME280;8154;50.830;12.082;2023-05-11T13:15:06;99077.81;;;24.19;38.37
16100;BME280;8154;50.830;12.082;2023-05-11T13:17:35;99077.63;;;24.20;38.31
16100;BME280;8154;50.830;12.082;2023-05-11T13:20:25;99076.16;;;24.18;38.40
16100;BME280;8154;50.830;12.082;2023-05-11T13:25:32;99067.56;;;24.16;38.68
16100;BME280;8154;50.830;12.082;2023-05-11T13:27:59;99069.81;;;24.19;38.62
16100;BME280;8154;50.830;12.082;2023-05-11T13:30:26;99066.31;;;24.12;38.58
16100;BME280;8154;50.830;12.082;2023-05-11T13:32:52;99062.22;;;24.09;38.61
16100;BME280;8154;50.830;12.082;2023-05-11T13:35:19;99058.72;;;24.15;38.45
16100;BME280;8154;50.830;12.082;2023-05-11T13:37:45;99057.69;;;24.16;38.55
16100;BME280;8154;50.830;12.082;2023-05-11T13:40:12;99060.56;;;24.15;38.45
16100;BME280;8154;50.830;12.082;2023-05-11T13:42:38;99064.28;;;24.14;38.54
16100;BME280;8154;50.830;12.082;2023-05-11T13:45:05;99059.97;;;24.13;38.78
16100;BME280;8154;50.830;12.082;2023-05-11T13:47:32;99058.09;;;24.13;38.83
16100;BME280;8154;50.830;12.082;2023-05-11T13:49:59;99054.81;;;24.18;38.51
16100;BME280;8154;50.830;12.082;2023-05-11T13:52:25;99059.72;;;24.21;38.34
16100;BME280;8154;50.830;12.082;2023-05-11T13:54:51;99055.84;;;24.17;38.68
16100;BME280;8154;50.830;12.082;2023-05-11T13:57:17;99060.78;;;24.13;38.77
16100;BME280;8154;50.830;12.082;2023-05-11T13:59:43;99060.97;;;24.18;38.49
16100;BME280;8154;50.830;12.082;2023-05-11T14:02:10;99056.25;;;24.20;38.51
16100;BME280;8154;50.830;12.082;2023-05-11T14:04:36;99058.50;;;24.17;38.42
16100;BME280;8154;50.830;12.082;2023-05-11T14:07:04;99065.69;;;24.16;38.77
16100;BME280;8154;50.830;12.082;2023-05-11T14:09:30;99058.09;;;24.20;38.57
16100;BME280;8154;50.830;12.082;2023-05-11T14:11:56;99061.38;;;24.22;38.34
16100;BME280;8154;50.830;12.082;2023-05-11T14:14:23;99058.31;;;24.18;38.45
16100;BME280;8154;50.830;12.082;2023-05-11T14:16:49;99058.31;;;24.18;38.49
16100;BME280;8154;50.830;12.082;2023-05-11T14:19:15;99060.75;;;24.20;38.26
16100;BME280;8154;50.830;12.082;2023-05-11T14:21:41;99062.38;;;24.21;38.52
16100;BME280;8154;50.830;12.082;2023-05-11T14:24:07;99063.44;;;24.20;38.37
16100;BME280;8154;50.830;12.082;2023-05-11T14:26:34;99068.16;;;24.18;38.41
16100;BME280;8154;50.830;12.082;2023-05-11T14:29:00;99066.31;;;24.18;38.24
16100;BME280;8154;50.830;12.082;2023-05-11T14:31:26;99063.03;;;24.16;38.58
16100;BME280;8154;50.830;12.082;2023-05-11T14:33:52;99060.97;;;24.18;38.59
16100;BME280;8154;50.830;12.082;2023-05-11T14:36:20;99060.34;;;24.23;38.21
16100;BME280;8154;50.830;12.082;2023-05-11T14:38:46;99059.53;;;24.22;38.43
16100;BME280;8154;50.830;12.082;2023-05-11T14:41:13;99063.44;;;24.20;38.29
16100;BME280;8154;50.830;12.082;2023-05-11T14:43:39;99057.88;;;24.21;38.48
16100;BME280;8154;50.830;12.082;2023-05-11T14:46:06;99057.25;;;24.26;38.18
16100;BME280;8154;50.830;12.082;2023-05-11T14:48:32;99058.69;;;24.28;38.05
16100;BME280;8154;50.830;12.082;2023-05-11T14:50:58;99060.34;;;24.23;38.37
16100;BME280;8154;50.830;12.082;2023-05-11T14:53:24;99059.53;;;24.22;38.22
16100;BME280;8154;50.830;12.082;2023-05-11T14:55:50;99061.59;;;24.20;38.57
16100;BME280;8154;50.830;12.082;2023-05-11T14:58:17;99056.03;;;24.22;38.22
16100;BME280;8154;50.830;12.082;2023-05-11T15:00:45;99065.06;;;24.27;38.43
16100;BME280;8154;50.830;12.082;2023-05-11T15:03:12;99065.06;;;24.27;38.09
16100;BME280;8154;50.830;12.082;2023-05-11T15:05:38;99064.66;;;24.24;38.43
16100;BME280;8154;50.830;12.082;2023-05-11T15:08:09;99064.06;;;24.22;38.25
16100;BME280;8154;50.830;12.082;2023-05-11T15:10:36;99067.34;;;24.24;38.45
16100;BME280;8154;50.830;12.082;2023-05-11T15:13:05;99076.56;;;24.28;38.27
16100;BME280;8154;50.830;12.082;2023-05-11T15:15:32;99075.34;;;24.24;38.20
16100;BME280;8154;50.830;12.082;2023-05-11T15:18:00;99084.59;;;24.21;38.42
16100;BME280;8154;50.830;12.082;2023-05-11T15:20:28;99086.84;;;24.24;38.52
16100;BME280;8154;50.830;12.082;2023-05-11T15:22:54;99097.09;;;24.27;38.46
16100;BME280;8154;50.830;12.082;2023-05-11T15:25:21;99099.38;;;24.24;38.38
16100;BME280;8154;50.830;12.082;2023-05-11T15:27:47;99106.16;;;24.26;38.25
16100;BME280;8154;50.830;12.082;2023-05-11T15:30:14;99122.38;;;24.25;38.39
16100;BME280;8154;50.830;12.082;2023-05-11T15:32:41;99125.88;;;24.25;38.17
16100;BME280;8154;50.830;12.082;2023-05-11T15:35:07;99122.38;;;24.25;38.16
16100;BME280;8154;50.830;12.082;2023-05-11T15:37:34;99125.47;;;24.28;38.33
16100;BME280;8154;50.830;12.082;2023-05-11T15:40:00;99127.31;;;24.28;38.31
16100;BME280;8154;50.830;12.082;2023-05-11T15:42:26;99132.22;;;24.24;38.23
16100;BME280;8154;50.830;12.082;2023-05-11T18:45:49;99235.56;;;24.37;37.43
16100;BME280;8154;50.830;12.082;2023-05-11T18:48:17;99235.16;;;24.40;37.74
16100;BME280;8154;50.830;12.082;2023-05-11T18:50:52;99235.56;;;24.30;37.64
16100;BME280;8154;50.830;12.082;2023-05-11T18:53:18;99234.97;;;24.28;37.59
16100;BME280;8154;50.830;12.082;2023-05-11T18:55:44;99241.31;;;24.34;37.61
16100;BME280;8154;50.830;12.082;2023-05-11T18:58:11;99246.88;;;24.39;37.38
16100;BME280;8154;50.830;12.082;2023-05-11T19:00:37;99246.03;;;24.39;37.49
16100;BME280;8154;50.830;12.082;2023-05-11T19:03:04;99245.41;;;24.43;37.28
16100;BME280;8154;50.830;12.082;2023-05-11T19:05:31;99243.78;;;24.42;37.28
16100;BME280;8154;50.830;12.082;2023-05-11T19:07:57;99252.22;;;24.46;37.60
16100;BME280;8154;50.830;12.082;2023-05-11T19:10:23;99258.78;;;24.37;37.78
16100;BME280;8154;50.830;12.082;2023-05-11T19:12:50;99260.84;;;24.35;37.81
16100;BME280;8154;50.830;12.082;2023-05-11T19:15:16;99260.22;;;24.39;37.61
16100;BME280;8154;50.830;12.082;2023-05-11T19:17:43;99260.66;;;24.43;37.69
16100;BME280;8154;50.830;12.082;2023-05-11T19:20:09;99262.28;;;24.44;37.29
16100;BME280;8154;50.830;12.082;2023-05-11T19:22:36;99269.03;;;24.46;37.56
16100;BME280;8154;50.830;12.082;2023-05-11T19:25:03;99268.03;;;24.41;37.40
16100;BME280;8154;50.830;12.082;2023-05-11T19:27:29;99272.97;;;24.37;37.49
16100;BME280;8154;50.830;12.082;2023-05-11T19:29:55;99277.47;;;24.43;37.26
16100;BME280;8154;50.830;12.082;2023-05-11T19:32:21;99276.25;;;24.46;37.52
16100;BME280;8154;50.830;12.082;2023-05-11T19:34:48;99274.00;;;24.43;37.51
16100;BME280;8154;50.830;12.082;2023-05-11T19:37:14;99278.09;;;24.39;37.41
16100;BME280;8154;50.830;12.082;2023-05-11T19:39:41;99279.34;;;24.43;37.17
16100;BME280;8154;50.830;12.082;2023-05-11T19:42:07;99277.91;;;24.47;37.46
16100;BME280;8154;50.830;12.082;2023-05-11T19:44:33;99278.94;;;24.46;37.44
16100;BME280;8154;50.830;12.082;2023-05-11T20:48:17;99308.94;;;24.41;37.29
16100;BME280;8154;50.830;12.082;2023-05-11T20:50:49;99307.06;;;24.48;37.24
16100;BME280;8154;50.830;12.082;2023-05-11T20:53:16;99305.00;;;24.57;37.09
16100;BME280;8154;50.830;12.082;2023-05-11T20:55:42;99308.31;;;24.46;37.11
16100;BME280;8154;50.830;12.082;2023-05-11T20:58:09;99310.97;;;24.39;37.15
16100;BME280;8154;50.830;12.082;2023-05-11T21:00:38;99309.94;;;24.47;36.97
16100;BME280;8154;50.830;12.082;2023-05-11T21:03:04;99310.97;;;24.52;36.86
16100;BME280;8154;50.830;12.082;2023-05-11T21:05:30;99305.84;;;24.44;37.17
16100;BME280;8154;50.830;12.082;2023-05-11T21:07:57;99309.94;;;24.40;37.08
16100;BME280;8154;50.830;12.082;2023-05-11T21:10:23;99308.31;;;24.46;36.93
16100;BME280;8154;50.830;12.082;2023-05-11T21:12:49;99305.63;;;24.52;36.82
16100;BME280;8154;50.830;12.082;2023-05-11T21:15:16;99314.66;;;24.45;37.03
16100;BME280;8154;50.830;12.082;2023-05-11T21:17:42;99317.75;;;24.42;37.16
16100;BME280;8154;50.830;12.082;2023-05-11T21:20:08;99315.28;;;24.47;37.14
16100;BME280;8154;50.830;12.082;2023-05-11T21:22:34;99317.56;;;24.50;36.88
16100;BME280;8154;50.830;12.082;2023-05-11T21:25:02;99322.69;;;24.45;37.14
16100;BME280;8154;50.830;12.082;2023-05-11T21:27:30;99317.97;;;24.40;37.16
16100;BME280;8154;50.830;12.082;2023-05-11T21:29:56;99313.88;;;24.44;37.35
16100;BME280;8154;50.830;12.082;2023-05-11T21:32:23;99316.31;;;24.52;37.09
16100;BME280;8154;50.830;12.082;2023-05-11T21:34:49;99316.94;;;24.48;37.20
16100;BME280;8154;50.830;12.082;2023-05-11T21:37:15;99326.81;;;24.41;37.42
16100;BME280;8154;50.830;12.082;2023-05-11T21:39:48;99326.81;;;24.47;36.95
16100;BME280;8154;50.830;12.082;2023-05-11T21:42:15;99333.38;;;24.51;37.15
16100;BME280;8154;50.830;12.082;2023-05-11T21:44:42;99336.69;;;24.53;37.12
16100;BME280;8154;50.830;12.082;2023-05-11T21:47:08;99338.09;;;24.56;36.88
16100;BME280;8154;50.830;12.082;2023-05-11T21:49:36;99338.72;;;24.51;37.02
16100;BME280;8154;50.830;12.082;2023-05-11T21:52:03;99334.63;;;24.42;36.94
16100;BME280;8154;50.830;12.082;2023-05-11T21:54:30;99329.28;;;24.42;37.00
16100;BME280;8154;50.830;12.082;2023-05-11T21:56:56;99339.13;;;24.48;37.05
16100;BME280;8154;50.830;12.082;2023-05-11T21:59:25;99342.00;;;24.47;37.07
16100;BME280;8154;50.830;12.082;2023-05-11T22:01:52;99354.56;;;24.40;37.38
16100;BME280;8154;50.830;12.082;2023-05-11T22:04:20;99352.88;;;24.39;36.92
16100;BME280;8154;50.830;12.082;2023-05-11T22:06:47;99360.09;;;24.45;36.90
16100;BME280;8154;50.830;12.082;2023-05-11T22:09:15;99350.84;;;24.47;36.76
16100;BME280;8154;50.830;12.082;2023-05-11T22:11:42;99353.50;;;24.41;36.97
16100;BME280;8154;50.830;12.082;2023-05-11T22:14:09;99355.97;;;24.36;37.17
16100;BME280;8154;50.830;12.082;2023-05-11T22:16:36;99365.63;;;24.43;36.92
16100;BME280;8154;50.830;12.082;2023-05-11T22:19:02;99362.56;;;24.46;36.84
16100;BME280;8154;50.830;12.082;2023-05-11T22:21:28;99362.97;;;24.50;36.88
16100;BME280;8154;50.830;12.082;2023-05-11T22:23:55;99358.03;;;24.47;36.88
16100;BME280;8154;50.830;12.082;2023-05-11T22:26:21;99372.00;;;24.42;37.18
16100;BME280;8154;50.830;12.082;2023-05-11T22:28:47;99378.97;;;24.37;37.00
16100;BME280;8154;50.830;12.082;2023-05-11T22:31:14;99377.34;;;24.42;36.92
16100;BME280;8154;50.830;12.082;2023-05-11T22:33:41;99380.66;;;24.44;37.18
16100;BME280;8154;50.830;12.082;2023-05-11T22:36:07;99378.59;;;24.46;37.09
16100;BME280;8154;50.830;12.082;2023-05-11T22:38:33;99384.34;;;24.50;37.20
16100;BME280;8154;50.830;12.082;2023-05-11T22:41:03;99378.41;;;24.41;37.10
16100;BME280;8154;50.830;12.082;2023-05-11T22:43:30;99383.09;;;24.39;37.04
16100;BME280;8154;50.830;12.082;2023-05-11T22:45:58;99381.66;;;24.43;37.31
16100;BME280;8154;50.830;12.082;2023-05-11T22:48:24;99390.94;;;24.47;36.92
16100;BME280;8154;50.830;12.082;2023-05-11T22:50:50;99385.78;;;24.46;37.22
16100;BME280;8154;50.830;12.082;2023-05-11T22:53:17;99387.22;;;24.42;37.20
16100;BME280;8154;50.830;12.082;2023-05-11T22:55:44;99382.28;;;24.45;36.81
16100;BME280;8154;50.830;12.082;2023-05-11T22:58:12;99378.16;;;24.49;36.72
16100;BME280;8154;50.830;12.082;2023-05-11T23:00:39;99379.00;;;24.43;36.88
16100;BME280;8154;50.830;12.082;2023-05-11T23:03:06;99382.91;;;24.41;37.01
16100;BME280;8154;50.830;12.082;2023-05-11T23:05:33;99375.72;;;24.41;37.19
16100;BME280;8154;50.830;12.082;2023-05-11T23:08:00;99378.19;;;24.43;36.96
16100;BME280;8154;50.830;12.082;2023-05-11T23:10:28;99381.88;;;24.48;36.89
16100;BME280;8154;50.830;12.082;2023-05-11T23:12:56;99380.84;;;24.49;36.92
16100;BME280;8154;50.830;12.082;2023-05-11T23:15:22;99385.59;;;24.47;36.86
16100;BME280;8154;50.830;12.082;2023-05-11T23:17:49;99381.25;;;24.46;36.98
16100;BME280;8154;50.830;12.082;2023-05-11T23:20:16;99383.13;;;24.46;37.19
16100;BME280;8154;50.830;12.082;2023-05-11T23:22:43;99386.00;;;24.44;36.73
16100;BME280;8154;50.830;12.082;2023-05-11T23:25:09;99387.63;;;24.45;36.88
16100;BME280;8154;50.830;12.082;2023-05-11T23:27:35;99385.78;;;24.46;37.04
16100;BME280;8154;50.830;12.082;2023-05-11T23:30:02;99383.94;;;24.46;36.77
16100;BME280;8154;50.830;12.082;2023-05-11T23:32:28;99398.31;;;24.45;36.79
16100;BME280;8154;50.830;12.082;2023-05-11T23:34:54;99395.03;;;24.43;37.17
16100;BME280;8154;50.830;12.082;2023-05-11T23:37:20;99404.69;;;24.44;36.75
16100;BME280;8154;50.830;12.082;2023-05-11T23:39:48;99400.78;;;24.47;36.81
16100;BME280;8154;50.830;12.082;2023-05-11T23:42:14;99395.25;;;24.48;36.90
16100;BME280;8154;50.830;12.082;2023-05-11T23:44:40;99386.81;;;24.45;37.00
16100;BME280;8154;50.830;12.082;2023-05-11T23:47:08;99387.00;;;24.43;36.78